KMIB/MIB METAR and TAF weather

Enter ICAO airport designator
Station Type Date Time Source
KMIB METAR 2019/08/22 08:56 UTC NOAA

KMIB 220856Z AUTO 09007KT 10SM CLR 10/08 A3004 RMK AO2 SLP177 T00990080 57009 $


Station Type Date Time Source
KMIB Decoded METAR 2019/08/22 08:56 UTC NOAA

Station name not available
Aug 22, 2019 - 04:56 AM EDT / 2019.08.22 0856 UTC
Wind: from the E (090 degrees) at 8 MPH (7 KT):0
Visibility: 10 mile(s):0
Sky conditions: clear
Temperature: 49.8 F (9.9 C)
Dew Point: 46.4 F (8.0 C)
Relative Humidity: 87%
Pressure (altimeter): 30.04 in. Hg (1017 hPa)
Pressure tendency: 0.03 inches (0.9 hPa) lower than three hours ago
ob: KMIB 220856Z AUTO 09007KT 10SM CLR 10/08 A3004 RMK AO2 SLP177 T00990080 57009
cycle: 9

Station Type Date Time Source
KMIB TAF 2019/08/22 01:15 UTC NOAA

TAF KMIB 220100Z 2201/2307 VRB06KT 9999 SKC QNH3003INS
BECMG 2214/2215 12012G18KT 9999 SKC QNH3000INS
BECMG 2223/2300 13012KT 9999 SKC QNH2988INS TX26/2223Z TN10/2212Z

Example: see airport list